Time;durP1;ratioP1;P1;durP2;ratioP2;P2;SDS_P1;SDS_P2;PMS_P1;PMS_P2;Temp;Humidity;BMP_temperature;BMP_pressure;BME280_temperature;BME280_humidity;BME280_pressure;Samples;Min_cycle;Max_cycle;Signal;HPM_P1;HPM_P2
2023/05/07 00:02:22;;;;;;;10.30;3.73;;;15.20;99.90;;;;;;4970126;28;20458;-55
2023/05/07 00:04:48;;;;;;;9.35;4.15;;;15.20;1.00;;;;;;4971200;28;20486;-56
2023/05/07 00:07:14;;;;;;;11.27;3.85;;;15.40;99.90;;;;;;4971022;28;20380;-56
2023/05/07 00:09:40;;;;;;;9.30;3.50;;;15.40;27.30;;;;;;4970742;28;20376;-56
2023/05/07 00:12:06;;;;;;;8.75;3.78;;;15.50;1.00;;;;;;4971414;28;20397;-56
2023/05/07 00:14:33;;;;;;;10.88;3.78;;;15.40;99.90;;;;;;4970650;28;20408;-56
2023/05/07 00:16:59;;;;;;;9.73;4.40;;;15.30;99.90;;;;;;4971192;28;20408;-56
2023/05/07 00:19:24;;;;;;;8.45;3.40;;;15.30;1.00;;;;;;4970720;28;20455;-56
2023/05/07 00:21:50;;;;;;;7.47;3.50;;;15.20;1.00;;;;;;4971264;28;20865;-55
2023/05/07 00:24:15;;;;;;;9.80;3.80;;;15.10;99.90;;;;;;4971639;28;20466;-56
2023/05/07 00:26:41;;;;;;;9.07;3.83;;;15.10;1.00;;;;;;4970063;28;20400;-56
2023/05/07 00:29:07;;;;;;;9.95;4.15;;;15.10;1.00;;;;;;4971293;28;20430;-55
2023/05/07 00:31:32;;;;;;;8.90;4.00;;;15.10;99.90;;;;;;4970238;28;20392;-56
2023/05/07 00:33:58;;;;;;;9.20;4.10;;;15.20;99.90;;;;;;4971412;28;20389;-56
2023/05/07 00:36:24;;;;;;;9.80;4.70;;;15.20;1.00;;;;;;4970504;28;20450;-56
2023/05/07 00:38:49;;;;;;;8.13;4.30;;;15.20;1.00;;;;;;4971399;28;20380;-56
2023/05/07 00:41:15;;;;;;;8.50;4.40;;;15.20;99.90;;;;;;4971008;28;20392;-55
2023/05/07 00:43:41;;;;;;;9.95;4.40;;;15.10;99.90;;;;;;4970158;28;20411;-55
2023/05/07 00:46:06;;;;;;;10.43;4.40;;;15.10;99.90;;;;;;4971158;28;20467;-55
2023/05/07 00:48:32;;;;;;;9.95;4.53;;;15.00;99.90;;;;;;4970170;28;20719;-55
2023/05/07 00:50:58;;;;;;;9.77;4.27;;;15.00;99.90;;;;;;4971100;28;20755;-55
2023/05/07 00:53:24;;;;;;;9.20;4.30;;;15.00;1.00;;;;;;4970204;28;20885;-55
2023/05/07 00:55:50;;;;;;;10.57;4.30;;;15.10;1.00;;;;;;4970783;28;20471;-55
2023/05/07 00:58:16;;;;;;;11.68;4.25;;;15.10;1.00;;;;;;4970980;28;20562;-56
2023/05/07 01:00:41;;;;;;;7.88;4.00;;;15.10;1.00;;;;;;4970485;28;20385;-55
2023/05/07 01:03:07;;;;;;;9.40;4.37;;;15.00;99.90;;;;;;4971091;28;20458;-55
2023/05/07 01:05:33;;;;;;;9.95;4.80;;;14.90;1.00;;;;;;4969993;28;20427;-56
2023/05/07 01:07:59;;;;;;;9.63;4.75;;;14.90;1.00;;;;;;4971105;28;20757;-55
2023/05/07 01:10:25;;;;;;;9.40;5.15;;;14.90;99.90;;;;;;4970107;28;20439;-55
2023/05/07 01:12:52;;;;;;;8.98;4.55;;;14.80;99.90;;;;;;4970970;28;20404;-55
2023/05/07 01:15:18;;;;;;;9.80;5.07;;;14.80;99.90;;;;;;4970463;28;20416;-55
2023/05/07 01:17:44;;;;;;;9.63;4.95;;;14.70;1.00;;;;;;4970351;28;20845;-55
2023/05/07 01:20:10;;;;;;;9.90;4.73;;;14.70;63.50;;;;;;4973057;28;20384;-55
2023/05/07 01:22:39;;;;;;;10.18;4.40;;;14.70;1.00;;;;;;4973347;28;20456;-56
2023/05/07 01:25:07;;;;;;;8.80;4.15;;;14.70;99.90;;;;;;4974477;28;20406;-55
2023/05/07 01:27:37;;;;;;;8.50;4.30;;;14.80;99.90;;;;;;4973643;28;20410;-55
2023/05/07 01:30:03;;;;;;;10.48;4.75;;;14.70;99.90;;;;;;4974283;28;20427;-55
2023/05/07 01:32:45;;;;;;;8.80;4.00;;;14.60;1.00;;;;;;4973690;28;20854;-55
2023/05/07 01:35:13;;;;;;;8.80;4.50;;;14.50;31.30;;;;;;4974235;28;20423;-55
2023/05/07 01:37:40;;;;;;;8.80;4.20;;;14.60;99.90;;;;;;4973495;28;20395;-55
2023/05/07 01:40:07;;;;;;;10.50;4.50;;;14.60;1.00;;;;;;4974233;28;20868;-55
2023/05/07 01:42:33;;;;;;;9.27;4.53;;;14.60;1.00;;;;;;4973639;28;20420;-55
2023/05/07 01:44:59;;;;;;;8.98;3.80;;;14.70;49.00;;;;;;4974453;28;20466;-55
2023/05/07 01:47:26;;;;;;;11.20;4.50;;;14.70;99.90;;;;;;4973128;28;20393;-55
2023/05/07 01:49:53;;;;;;;8.68;4.20;;;14.80;99.90;;;;;;4973807;28;20393;-55
2023/05/07 01:52:19;;;;;;;8.98;4.03;;;14.80;99.90;;;;;;4974376;28;20776;-55
2023/05/07 01:54:46;;;;;;;9.25;4.45;;;14.80;99.90;;;;;;4973496;28;20372;-55
2023/05/07 01:57:11;;;;;;;8.35;4.30;;;14.80;99.90;;;;;;4973629;28;20419;-55
2023/05/07 01:59:37;;;;;;;8.93;4.60;;;14.80;1.00;;;;;;4973285;28;20393;-55
2023/05/07 02:02:02;;;;;;;8.20;4.10;;;14.80;1.00;;;;;;4973750;28;20801;-55
2023/05/07 02:04:28;;;;;;;8.50;4.20;;;14.80;1.00;;;;;;4972601;28;20388;-55
2023/05/07 02:06:53;;;;;;;8.00;3.70;;;14.80;1.00;;;;;;4973450;28;20720;-55
2023/05/07 02:09:19;;;;;;;8.97;3.80;;;14.70;99.90;;;;;;4973498;28;20734;-55
2023/05/07 02:11:45;;;;;;;7.95;4.13;;;14.60;99.90;;;;;;4955338;28;20408;-55
2023/05/07 02:14:10;;;;;;;8.10;3.80;;;14.50;1.00;;;;;;4956430;28;20388;-55
2023/05/07 02:16:36;;;;;;;9.80;4.27;;;14.40;1.00;;;;;;4973025;28;20395;-55
2023/05/07 02:19:02;;;;;;;8.70;4.38;;;14.40;64.50;;;;;;4973230;28;20893;-55
2023/05/07 02:21:28;;;;;;;8.67;4.10;;;14.30;99.90;;;;;;4972964;28;20384;-55
2023/05/07 02:23:53;;;;;;;9.60;4.40;;;14.30;99.90;;;;;;4973475;28;20424;-56
2023/05/07 02:26:19;;;;;;;9.10;4.00;;;14.30;99.90;;;;;;4973575;28;20415;-56
2023/05/07 02:28:44;;;;;;;8.73;4.30;;;14.40;79.70;;;;;;4955461;28;20407;-56
2023/05/07 02:31:10;;;;;;;11.00;4.90;;;14.40;1.00;;;;;;4971879;28;20396;-55
2023/05/07 02:33:36;;;;;;;9.90;4.23;;;14.30;1.00;;;;;;4972914;28;20415;-56
2023/05/07 02:36:12;;;;;;;9.05;4.20;;;14.30;59.00;;;;;;4973577;28;20384;-55
2023/05/07 02:38:37;;;;;;;10.40;4.78;;;14.20;99.90;;;;;;4971998;28;20408;-55
2023/05/07 02:41:03;;;;;;;9.83;4.50;;;14.20;99.90;;;;;;4973051;28;20415;-56
2023/05/07 02:43:29;;;;;;;9.93;4.30;;;14.20;99.90;;;;;;4972192;28;20877;-56
2023/05/07 02:46:09;;;;;;;9.30;4.73;;;14.10;99.90;;;;;;4972906;28;20442;-55
2023/05/07 02:48:34;;;;;;;10.27;4.13;;;14.10;99.90;;;;;;4972100;28;20412;-55
2023/05/07 02:51:01;;;;;;;8.87;4.37;;;14.10;99.90;;;;;;4972651;28;20392;-55
2023/05/07 02:53:27;;;;;;;9.18;4.43;;;14.10;99.90;;;;;;4972375;28;20438;-55
2023/05/07 02:55:56;;;;;;;9.88;4.70;;;14.10;99.90;;;;;;4972713;28;20420;-55
2023/05/07 02:58:22;;;;;;;10.80;5.40;;;14.00;99.90;;;;;;4971763;28;20908;-55
2023/05/07 03:00:48;;;;;;;9.25;5.20;;;13.80;99.90;;;;;;4973324;28;20392;-55
2023/05/07 03:03:14;;;;;;;13.15;5.32;;;13.70;99.90;;;;;;4972575;28;20411;-55
2023/05/07 03:05:40;;;;;;;10.40;5.60;;;13.70;99.90;;;;;;4971972;28;20474;-55
2023/05/07 03:08:05;;;;;;;9.80;5.10;;;13.70;99.90;;;;;;4972743;28;20424;-55
2023/05/07 03:10:31;;;;;;;12.02;5.40;;;13.60;99.90;;;;;;4971725;28;20404;-55
2023/05/07 03:12:57;;;;;;;10.60;5.37;;;13.70;99.90;;;;;;4972441;28;20483;-55
2023/05/07 03:15:22;;;;;;;11.63;5.33;;;13.60;99.90;;;;;;4971931;28;20413;-56
2023/05/07 03:17:48;;;;;;;11.02;5.13;;;13.60;99.90;;;;;;4972078;28;20936;-55
2023/05/07 03:20:14;;;;;;;10.20;4.70;;;13.50;99.90;;;;;;4955320;28;20392;-55
2023/05/07 03:22:40;;;;;;;11.10;5.55;;;13.60;99.90;;;;;;4971722;28;20471;-55
2023/05/07 03:25:06;;;;;;;9.67;4.97;;;13.60;99.90;;;;;;4971886;28;20436;-55
2023/05/07 03:27:34;;;;;;;8.02;4.57;;;13.50;99.90;;;;;;4971977;28;20392;-55
2023/05/07 03:30:00;;;;;;;10.90;5.20;;;13.50;99.90;;;;;;4971890;28;20428;-55
2023/05/07 03:32:26;;;;;;;11.65;5.25;;;13.40;99.90;;;;;;4970942;28;20447;-55
2023/05/07 03:34:52;;;;;;;9.75;5.40;;;13.30;99.90;;;;;;4971888;28;20758;-55
2023/05/07 03:37:18;;;;;;;10.80;5.45;;;13.30;99.90;;;;;;4971838;28;20909;-55
2023/05/07 03:39:43;;;;;;;10.48;5.45;;;13.10;99.90;;;;;;4970932;28;20404;-55
2023/05/07 03:42:09;;;;;;;11.60;5.60;;;13.20;99.90;;;;;;4971143;28;20466;-55
2023/05/07 03:44:36;;;;;;;11.30;4.60;;;13.10;99.90;;;;;;4970886;28;20739;-58
2023/05/07 03:47:02;;;;;;;11.38;5.40;;;13.20;99.90;;;;;;4971783;28;20435;-58
2023/05/07 03:49:27;;;;;;;10.15;4.70;;;13.20;99.90;;;;;;4971020;28;20384;-58
2023/05/07 03:51:53;;;;;;;13.10;5.00;;;13.20;99.90;;;;;;4971738;28;20750;-58
2023/05/07 03:54:19;;;;;;;10.67;4.53;;;13.10;99.90;;;;;;4971654;28;20384;-57
2023/05/07 03:56:44;;;;;;;8.52;4.80;;;13.30;99.90;;;;;;4970828;28;20385;-57
2023/05/07 03:59:10;;;;;;;14.83;5.00;;;13.30;99.90;;;;;;4971476;28;20532;-58
2023/05/07 04:01:36;;;;;;;9.60;4.70;;;13.30;99.90;;;;;;4970587;28;20412;-55
2023/05/07 04:04:01;;;;;;;8.98;4.40;;;13.30;99.90;;;;;;4971498;28;20427;-55
2023/05/07 04:06:27;;;;;;;10.03;4.90;;;13.30;99.90;;;;;;4970739;28;20390;-56
2023/05/07 04:08:53;;;;;;;9.13;5.07;;;13.40;99.90;;;;;;4971222;28;20431;-55
2023/05/07 04:11:18;;;;;;;9.13;4.00;;;13.50;99.90;;;;;;4971385;28;20439;-55
2023/05/07 04:13:44;;;;;;;10.87;4.57;;;13.40;99.90;;;;;;4970907;28;20415;-55
2023/05/07 04:16:09;;;;;;;8.38;4.10;;;13.50;99.90;;;;;;4971246;28;20821;-55
2023/05/07 04:18:35;;;;;;;8.17;4.07;;;13.60;99.90;;;;;;4969380;28;20451;-55
2023/05/07 04:21:01;;;;;;;9.40;4.53;;;13.70;99.90;;;;;;4970867;28;20406;-55
2023/05/07 04:23:27;;;;;;;8.90;4.18;;;13.80;1.00;;;;;;4969990;28;20826;-55
2023/05/07 04:25:54;;;;;;;8.17;3.90;;;13.90;1.00;;;;;;4971306;28;20396;-55
2023/05/07 04:28:20;;;;;;;8.68;4.60;;;13.90;1.00;;;;;;4970521;28;20392;-55
2023/05/07 04:30:46;;;;;;;8.45;4.30;;;14.00;1.00;;;;;;4970402;28;20674;-55
2023/05/07 04:33:11;;;;;;;8.65;4.40;;;14.00;1.00;;;;;;4971457;28;20870;-56
2023/05/07 04:35:37;;;;;;;8.90;4.30;;;13.90;1.00;;;;;;4969924;28;20873;-55
2023/05/07 04:38:03;;;;;;;9.70;4.60;;;14.00;1.00;;;;;;4970903;28;20388;-55
2023/05/07 04:40:29;;;;;;;9.38;4.43;;;14.00;1.00;;;;;;4970109;28;20381;-55
2023/05/07 04:42:54;;;;;;;8.03;4.13;;;14.20;99.90;;;;;;4970881;28;20420;-55
2023/05/07 04:45:20;;;;;;;8.63;4.45;;;14.20;99.90;;;;;;4965928;28;20883;-55
2023/05/07 04:47:45;;;;;;;11.30;4.90;;;14.20;33.90;;;;;;4959410;28;20413;-56
2023/05/07 04:50:11;;;;;;;9.47;5.00;;;14.30;99.90;;;;;;4951221;29;20394;-55
2023/05/07 04:52:37;;;;;;;10.05;4.38;;;14.70;25.30;;;;;;4950876;29;20401;-56
2023/05/07 04:55:03;;;;;;;11.70;4.20;;;15.00;1.00;;;;;;4970342;28;20410;-55
2023/05/07 04:57:28;;;;;;;8.25;4.20;;;15.40;1.00;;;;;;4974070;28;20392;-56
2023/05/07 04:59:54;;;;;;;9.70;4.43;;;16.00;99.90;;;;;;4974949;28;20414;-59
2023/05/07 05:02:20;;;;;;;9.90;4.50;;;16.40;1.00;;;;;;4974596;28;20416;-56
2023/05/07 05:04:46;;;;;;;7.87;3.87;;;16.50;1.00;;;;;;4969546;28;20408;-56
2023/05/07 05:07:11;;;;;;;9.45;4.43;;;16.60;1.00;;;;;;4974012;28;20486;-56
2023/05/07 05:09:37;;;;;;;8.03;3.90;;;16.60;1.00;;;;;;4973468;28;20483;-56
2023/05/07 05:12:03;;;;;;;7.85;3.88;;;16.60;1.00;;;;;;4973879;28;20855;-56
2023/05/07 05:14:29;;;;;;;8.95;4.03;;;16.50;99.90;;;;;;4971599;28;20491;-55
2023/05/07 05:16:55;;;;;;;8.60;4.30;;;16.40;99.90;;;;;;4973700;28;20395;-55
2023/05/07 05:19:20;;;;;;;8.47;3.80;;;16.20;99.90;;;;;;4973023;28;20400;-56
2023/05/07 05:21:46;;;;;;;7.82;4.00;;;16.20;1.00;;;;;;4971669;28;20591;-56
2023/05/07 05:24:11;;;;;;;9.63;4.90;;;16.20;1.00;;;;;;4972531;28;20427;-55
2023/05/07 05:26:37;;;;;;;9.50;4.60;;;16.30;1.00;;;;;;4973458;28;20422;-55
2023/05/07 05:29:03;;;;;;;8.60;4.30;;;16.20;1.00;;;;;;4973787;28;20456;-55
2023/05/07 05:31:28;;;;;;;10.90;4.03;;;16.20;1.00;;;;;;4972926;28;20388;-56
2023/05/07 05:33:54;;;;;;;8.23;3.30;;;17.00;1.00;;;;;;4974412;28;20395;-56
2023/05/07 05:36:19;;;;;;;9.35;3.83;;;18.70;99.90;;;;;;4974209;28;20462;-56
2023/05/07 05:38:45;;;;;;;7.80;3.33;;;20.40;1.00;;;;;;4973285;28;21019;-57
2023/05/07 05:41:11;;;;;;;8.00;3.70;;;22.00;1.00;;;;;;4973797;28;20941;-57
2023/05/07 05:43:37;;;;;;;8.20;3.80;;;23.30;99.90;;;;;;4972994;28;20412;-57
2023/05/07 05:46:04;;;;;;;8.67;4.03;;;23.80;1.00;;;;;;4956654;28;20416;-57
2023/05/07 05:48:29;;;;;;;9.15;4.10;;;24.60;1.00;;;;;;4973204;28;20395;-56
2023/05/07 05:50:55;;;;;;;8.00;5.38;;;24.50;99.90;;;;;;4973703;28;20487;-57
2023/05/07 05:53:21;;;;;;;9.63;5.72;;;25.20;99.90;;;;;;4973474;28;20859;-57
2023/05/07 05:55:47;;;;;;;8.80;6.50;;;26.20;99.90;;;;;;4972968;28;20470;-57
2023/05/07 05:58:12;;;;;;;8.70;6.00;;;26.00;99.90;;;;;;4963063;28;20758;-57
2023/05/07 06:00:38;;;;;;;7.63;5.00;;;26.40;99.90;;;;;;4971559;28;20463;-57
2023/05/07 06:03:04;;;;;;;7.78;3.13;;;26.40;99.90;;;;;;4954503;29;21021;-57
2023/05/07 06:05:30;;;;;;;10.10;2.95;;;26.30;99.90;;;;;;4964149;28;20477;-57
2023/05/07 06:07:55;;;;;;;6.93;2.90;;;25.90;99.90;;;;;;4965207;28;20396;-57
2023/05/07 06:10:21;;;;;;;6.40;2.40;;;26.00;99.90;;;;;;4961437;28;20394;-57
2023/05/07 06:12:46;;;;;;;7.40;2.90;;;25.70;99.90;;;;;;4958189;28;20477;-57
2023/05/07 06:15:12;;;;;;;7.43;4.70;;;25.20;99.90;;;;;;4973288;28;20392;-57
2023/05/07 06:17:38;;;;;;;10.27;5.30;;;25.30;99.90;;;;;;4972709;28;20722;-57
2023/05/07 06:20:04;;;;;;;7.78;4.90;;;26.20;99.90;;;;;;4973350;28;20761;-57
2023/05/07 06:22:29;;;;;;;7.38;4.95;;;26.40;99.90;;;;;;4965643;28;20418;-57
2023/05/07 06:24:56;;;;;;;7.17;4.80;;;25.70;99.90;;;;;;4954100;29;20406;-57
2023/05/07 06:27:22;;;;;;;7.23;4.50;;;25.10;99.90;;;;;;4953472;29;20421;-57
2023/05/07 06:29:48;;;;;;;7.90;4.63;;;24.90;99.90;;;;;;4952981;29;20406;-58
2023/05/07 06:32:14;;;;;;;7.00;4.30;;;25.60;99.90;;;;;;4966470;28;20382;-57
2023/05/07 06:34:40;;;;;;;7.90;4.70;;;25.20;99.90;;;;;;4972209;28;20384;-57
2023/05/07 06:37:06;;;;;;;7.20;4.20;;;24.10;99.90;;;;;;4972987;28;20392;-57
2023/05/07 06:39:32;;;;;;;6.70;4.10;;;24.50;99.90;;;;;;4972329;28;20396;-57
2023/05/07 06:41:59;;;;;;;10.60;5.10;;;25.40;99.90;;;;;;4972673;28;20408;-58
2023/05/07 06:44:25;;;;;;;8.80;5.60;;;26.30;99.90;;;;;;4972317;28;20815;-58
2023/05/07 06:46:50;;;;;;;8.50;5.80;;;27.30;99.90;;;;;;4972064;28;20381;-61
2023/05/07 06:49:16;;;;;;;9.05;6.28;;;27.80;99.90;;;;;;4968951;28;20412;-59
2023/05/07 06:51:41;;;;;;;8.73;3.97;;;28.40;99.90;;;;;;4971389;28;20396;-59
2023/05/07 06:54:07;;;;;;;8.60;7.70;;;28.70;99.90;;;;;;4972307;28;20396;-59
2023/05/07 06:56:34;;;;;;;9.82;7.30;;;28.60;99.90;;;;;;4970970;28;20423;-60
2023/05/07 06:59:00;;;;;;;8.43;7.53;;;28.70;99.90;;;;;;4971969;28;20481;-59
2023/05/07 07:01:26;;;;;;;8.85;7.95;;;29.20;99.90;;;;;;4971462;28;20435;-60
2023/05/07 07:03:52;;;;;;;7.90;6.50;;;29.00;99.90;;;;;;4970763;28;20420;-60
2023/05/07 07:06:18;;;;;;;9.50;7.60;;;28.50;99.90;;;;;;4969577;28;20759;-59
2023/05/07 07:08:43;;;;;;;9.27;7.10;;;28.70;99.90;;;;;;4965952;28;20403;-59
2023/05/07 07:11:10;;;;;;;9.27;7.85;;;28.50;99.90;;;;;;4971630;28;20432;-59
2023/05/07 07:13:35;;;;;;;8.10;6.95;;;28.30;99.90;;;;;;4970471;28;20405;-59
2023/05/07 07:16:01;;;;;;;8.57;6.88;;;28.20;99.90;;;;;;4970015;28;20789;-60
2023/05/07 07:18:27;;;;;;;10.03;7.30;;;28.80;99.90;;;;;;4968471;28;20419;-59
2023/05/07 07:20:53;;;;;;;9.40;8.50;;;29.60;99.90;;;;;;4969840;28;20435;-59
2023/05/07 07:23:18;;;;;;;8.05;7.25;;;29.80;99.90;;;;;;4971324;28;20769;-60
2023/05/07 07:25:44;;;;;;;8.87;6.77;;;29.60;99.90;;;;;;4971468;28;20399;-59
2023/05/07 07:28:10;;;;;;;9.15;7.05;;;28.40;99.90;;;;;;4970531;28;20430;-59
2023/05/07 07:30:36;;;;;;;8.60;6.55;;;27.40;99.90;;;;;;4970682;28;20435;-59
2023/05/07 07:33:03;;;;;;;10.00;6.30;;;26.10;99.90;;;;;;4968556;28;20490;-58
2023/05/07 07:35:35;;;;;;;7.90;5.90;;;25.30;99.90;;;;;;4969011;28;20491;-61
2023/05/07 07:38:01;;;;;;;8.07;6.50;;;25.10;99.90;;;;;;4967314;28;20432;-58
2023/05/07 07:40:27;;;;;;;10.43;6.53;;;25.00;99.90;;;;;;4969834;28;20444;-58
2023/05/07 07:42:53;;;;;;;10.63;6.30;;;25.00;99.90;;;;;;4969089;28;20420;-58
2023/05/07 07:45:19;;;;;;;8.50;6.07;;;25.40;99.90;;;;;;4969078;28;20405;-58
2023/05/07 07:47:44;;;;;;;9.90;6.15;;;26.10;99.90;;;;;;4970480;28;20401;-59
2023/05/07 07:50:11;;;;;;;8.65;6.15;;;26.50;99.90;;;;;;4971478;28;20388;-59
2023/05/07 07:52:36;;;;;;;7.70;5.50;;;25.70;99.90;;;;;;4970531;28;20405;-59
2023/05/07 07:55:03;;;;;;;8.35;5.93;;;25.30;99.90;;;;;;4971216;28;20460;-59
2023/05/07 07:57:28;;;;;;;9.38;5.70;;;24.60;99.90;;;;;;4970741;28;20436;-58
2023/05/07 07:59:54;;;;;;;8.43;5.93;;;23.90;99.90;;;;;;4971392;28;20420;-58
2023/05/07 08:02:20;;;;;;;8.70;5.40;;;23.40;99.90;;;;;;4970959;28;20424;-59
2023/05/07 08:04:45;;;;;;;7.90;4.90;;;23.10;99.90;;;;;;4969374;28;20419;-58
2023/05/07 08:07:11;;;;;;;8.40;5.60;;;23.00;99.90;;;;;;4971204;28;20475;-58
2023/05/07 08:09:38;;;;;;;9.30;5.45;;;22.90;99.90;;;;;;4970655;28;20479;-58
2023/05/07 08:12:05;;;;;;;8.50;5.67;;;23.10;99.90;;;;;;4970398;28;20422;-58
2023/05/07 08:14:30;;;;;;;8.00;4.97;;;22.70;99.90;;;;;;4964664;28;20479;-58
2023/05/07 08:16:56;;;;;;;9.02;5.40;;;22.70;99.90;;;;;;4970927;28;20484;-57
2023/05/07 08:19:22;;;;;;;10.80;5.20;;;22.80;99.90;;;;;;4966259;28;20796;-58
2023/05/07 08:21:48;;;;;;;9.00;4.90;;;22.80;99.90;;;;;;4960509;28;20442;-59
2023/05/07 08:24:17;;;;;;;8.85;5.40;;;23.00;99.90;;;;;;4969036;28;20412;-59
2023/05/07 08:26:44;;;;;;;7.47;4.40;;;23.20;99.90;;;;;;4966135;28;20455;-59
2023/05/07 08:29:09;;;;;;;8.77;5.20;;;23.40;99.90;;;;;;4969157;28;20527;-59
2023/05/07 08:31:35;;;;;;;8.60;5.30;;;23.60;99.90;;;;;;4965476;28;20478;-59
2023/05/07 08:34:01;;;;;;;10.37;5.60;;;23.80;99.90;;;;;;4967396;28;21723;-59
2023/05/07 08:36:28;;;;;;;7.95;4.50;;;24.30;99.90;;;;;;4970187;28;20847;-59
2023/05/07 08:38:54;;;;;;;9.27;5.10;;;24.80;99.90;;;;;;4968394;28;20495;-59
2023/05/07 08:41:20;;;;;;;11.98;5.40;;;25.30;99.90;;;;;;4968622;28;20423;-59
2023/05/07 08:43:49;;;;;;;8.68;5.43;;;26.10;99.90;;;;;;4969260;28;20416;-60
2023/05/07 08:46:21;;;;;;;7.90;5.28;;;27.60;99.90;;;;;;4970037;28;20404;-59
2023/05/07 08:48:51;;;;;;;8.05;6.28;;;28.90;99.90;;;;;;4967683;28;20479;-59
2023/05/07 08:51:19;;;;;;;10.23;8.20;;;29.80;99.90;;;;;;4970013;28;20769;-60
2023/05/07 08:53:45;;;;;;;10.57;8.48;;;31.40;99.90;;;;;;4967509;28;20408;-60
2023/05/07 08:56:12;;;;;;;8.82;5.78;;;32.00;99.90;;;;;;4969867;28;20743;-60
2023/05/07 08:58:37;;;;;;;9.35;8.02;;;32.20;99.90;;;;;;4968928;28;20416;-60
2023/05/07 09:01:08;;;;;;;9.63;8.73;;;32.60;99.90;;;;;;4968328;28;20948;-60
2023/05/07 09:03:34;;;;;;;8.27;5.20;;;32.30;99.90;;;;;;4966173;28;20420;-60
2023/05/07 09:06:00;;;;;;;7.70;3.80;;;32.20;99.90;;;;;;4969823;28;20451;-60
2023/05/07 09:08:29;;;;;;;7.30;3.40;;;32.40;99.90;;;;;;4969533;28;20491;-60
2023/05/07 09:10:55;;;;;;;9.80;4.57;;;32.60;99.90;;;;;;4970284;28;20396;-60
2023/05/07 09:13:21;;;;;;;12.55;8.52;;;32.40;99.90;;;;;;4968972;28;20393;-60
2023/05/07 09:15:46;;;;;;;8.10;4.30;;;31.80;99.90;;;;;;4969050;28;21081;-60
2023/05/07 09:18:13;;;;;;;9.25;4.05;;;31.70;99.90;;;;;;4969231;28;20976;-59
2023/05/07 09:20:39;;;;;;;9.00;3.92;;;32.20;99.90;;;;;;4966955;28;20453;-60
2023/05/07 09:23:07;;;;;;;8.50;3.92;;;32.90;99.90;;;;;;4966490;28;20416;-60
2023/05/07 09:25:34;;;;;;;10.40;6.10;;;34.10;99.90;;;;;;4969048;28;20531;-60
2023/05/07 09:28:01;;;;;;;7.72;3.92;;;34.50;99.90;;;;;;4967051;28;20723;-60
2023/05/07 09:30:30;;;;;;;9.23;5.55;;;34.00;99.90;;;;;;4970100;28;20416;-60
2023/05/07 09:32:57;;;;;;;8.05;3.85;;;34.10;99.90;;;;;;4970148;28;20400;-59
2023/05/07 09:35:29;;;;;;;8.35;4.00;;;34.80;99.90;;;;;;4970237;28;20380;-59
2023/05/07 09:37:59;;;;;;;8.57;4.15;;;34.30;99.90;;;;;;4968331;28;20451;-60
2023/05/07 09:40:30;;;;;;;7.75;3.42;;;34.50;99.90;;;;;;4970225;28;20388;-59
2023/05/07 09:42:55;;;;;;;8.23;4.00;;;34.90;99.90;;;;;;4973101;28;20507;-59
2023/05/07 09:45:25;;;;;;;8.15;3.90;;;34.30;99.90;;;;;;4973031;28;20475;-60
2023/05/07 09:47:55;;;;;;;8.02;3.40;;;34.30;99.90;;;;;;4971523;28;20400;-60
2023/05/07 09:50:27;;;;;;;6.95;3.22;;;34.10;99.90;;;;;;4972372;28;20439;-60
2023/05/07 09:52:55;;;;;;;6.60;2.70;;;33.80;99.90;;;;;;4971421;28;20407;-60
2023/05/07 09:55:21;;;;;;;7.50;3.07;;;34.30;99.90;;;;;;4972111;28;20471;-60
2023/05/07 09:57:52;;;;;;;6.90;3.30;;;34.70;99.90;;;;;;4967972;28;20417;-60
2023/05/07 10:00:19;;;;;;;7.57;3.42;;;34.80;99.90;;;;;;4965238;28;20439;-60
2023/05/07 10:02:51;;;;;;;6.88;3.17;;;34.60;99.90;;;;;;4970899;28;20773;-60
2023/05/07 10:05:18;;;;;;;8.20;3.70;;;33.80;99.90;;;;;;4971582;28;20944;-59
2023/05/07 10:07:45;;;;;;;8.60;3.40;;;32.70;99.90;;;;;;4971807;28;20803;-59
2023/05/07 10:10:11;;;;;;;6.80;2.80;;;33.00;99.90;;;;;;4972609;28;20388;-59
2023/05/07 10:12:39;;;;;;;8.70;3.17;;;33.20;99.90;;;;;;4972159;28;20411;-60
2023/05/07 10:15:11;;;;;;;7.35;4.25;;;32.90;99.90;;;;;;4970167;28;20459;-59
2023/05/07 10:17:40;;;;;;;8.57;7.68;;;33.00;99.90;;;;;;4969434;28;20408;-60
2023/05/07 10:20:08;;;;;;;8.02;7.00;;;32.80;99.90;;;;;;4972753;28;20498;-59
2023/05/07 10:22:42;;;;;;;8.55;7.65;;;32.80;99.90;;;;;;4971894;28;20407;-60
2023/05/07 10:25:20;;;;;;;7.83;7.03;;;32.20;99.90;;;;;;4973057;28;20467;-59
2023/05/07 10:27:48;;;;;;;9.07;7.30;;;32.30;99.90;;;;;;4972184;28;20398;-59
2023/05/07 10:30:26;;;;;;;8.85;7.50;;;32.60;99.90;;;;;;4973074;28;20424;-59
2023/05/07 10:32:56;;;;;;;9.43;8.45;;;31.90;99.90;;;;;;4971871;28;20447;-59
2023/05/07 10:35:26;;;;;;;9.40;8.40;;;31.30;99.90;;;;;;4966654;28;20421;-59
2023/05/07 10:37:52;;;;;;;9.45;8.52;;;30.60;99.90;;;;;;4972116;28;20433;-59
2023/05/07 10:40:20;;;;;;;9.85;7.70;;;29.90;99.90;;;;;;4972615;28;20904;-59
2023/05/07 10:42:59;;;;;;;8.27;7.13;;;29.40;99.90;;;;;;4972025;28;20413;-59
2023/05/07 10:45:25;;;;;;;9.00;8.02;;;28.80;99.90;;;;;;4972150;28;20411;-59
2023/05/07 10:48:09;;;;;;;8.75;7.85;;;28.70;99.90;;;;;;4971526;28;20399;-59
2023/05/07 10:50:39;;;;;;;9.20;7.80;;;28.50;99.90;;;;;;4952536;29;20434;-59
2023/05/07 10:53:17;;;;;;;10.60;8.13;;;28.50;99.90;;;;;;4962355;28;20487;-59
2023/05/07 10:55:48;;;;;;;8.90;7.50;;;28.70;99.90;;;;;;4971108;28;20443;-59
2023/05/07 10:58:24;;;;;;;10.00;7.90;;;28.50;99.90;;;;;;4970170;28;20412;-59
2023/05/07 11:00:51;;;;;;;8.52;7.40;;;27.80;99.90;;;;;;4968717;28;20464;-59
2023/05/07 11:03:17;;;;;;;9.32;7.90;;;27.60;99.90;;;;;;4971766;28;20451;-59
2023/05/07 11:05:42;;;;;;;8.67;7.10;;;27.30;99.90;;;;;;4971019;28;20817;-59
2023/05/07 11:08:09;;;;;;;9.27;7.40;;;27.30;99.90;;;;;;4969885;28;20392;-59
2023/05/07 11:10:58;;;;;;;9.50;7.60;;;27.30;99.90;;;;;;4971574;28;20394;-59
2023/05/07 11:13:41;;;;;;;9.82;7.43;;;27.20;99.90;;;;;;4967709;28;20468;-59
2023/05/07 11:16:27;;;;;;;8.70;7.80;;;27.00;99.90;;;;;;4952909;29;20394;-59
2023/05/07 11:18:54;;;;;;;9.20;8.30;;;26.80;99.90;;;;;;4951525;29;20399;-58
2023/05/07 11:21:40;;;;;;;8.60;7.40;;;26.70;99.90;;;;;;4952873;29;20394;-58
2023/05/07 11:24:07;;;;;;;8.40;6.90;;;27.40;99.90;;;;;;4945974;29;20927;-59
2023/05/07 11:26:49;;;;;;;8.70;6.60;;;26.90;99.90;;;;;;4952299;29;20393;-61
2023/05/07 11:29:21;;;;;;;10.02;6.95;;;27.20;99.90;;;;;;4952739;29;20906;-59
2023/05/07 11:31:54;;;;;;;7.97;6.70;;;26.90;99.90;;;;;;4951939;29;20394;-59
2023/05/07 11:34:24;;;;;;;10.65;7.15;;;27.20;99.90;;;;;;4962781;28;20404;-59
2023/05/07 11:36:51;;;;;;;9.18;6.70;;;27.10;99.90;;;;;;4951717;29;20390;-59
2023/05/07 11:39:33;;;;;;;8.45;7.28;;;27.00;99.90;;;;;;4959027;28;21016;-59
2023/05/07 11:42:02;;;;;;;8.70;6.80;;;27.10;99.90;;;;;;4969748;28;20396;-59
2023/05/07 11:44:49;;;;;;;8.13;7.07;;;26.80;99.90;;;;;;4965965;28;20981;-59
2023/05/07 11:47:18;;;;;;;7.65;6.57;;;26.80;99.90;;;;;;4968531;28;20427;-59
2023/05/07 11:49:48;;;;;;;8.47;7.00;;;26.50;99.90;;;;;;4970465;28;20495;-59
2023/05/07 11:52:14;;;;;;;11.45;6.70;;;26.20;99.90;;;;;;4971726;28;20735;-59
2023/05/07 11:54:40;;;;;;;9.35;7.03;;;26.10;99.90;;;;;;4968180;28;20408;-59
2023/05/07 11:57:07;;;;;;;8.55;6.90;;;26.10;99.90;;;;;;4970629;28;20411;-59
2023/05/07 11:59:44;;;;;;;8.60;6.70;;;26.10;99.90;;;;;;4970469;28;20528;-59
2023/05/07 12:02:10;;;;;;;9.90;7.35;;;26.10;99.90;;;;;;4970857;28;20435;-59
2023/05/07 12:04:35;;;;;;;9.50;6.80;;;25.90;99.90;;;;;;4969736;28;20408;-59
2023/05/07 12:07:01;;;;;;;8.82;6.80;;;25.70;99.90;;;;;;4971245;28;20384;-59
2023/05/07 12:09:27;;;;;;;8.80;6.30;;;25.80;99.90;;;;;;4970998;28;20389;-59
2023/05/07 12:11:52;;;;;;;8.27;6.40;;;25.90;99.90;;;;;;4969615;28;20381;-58
2023/05/07 12:14:18;;;;;;;8.23;6.73;;;26.10;99.90;;;;;;4971082;28;20392;-58
2023/05/07 12:16:45;;;;;;;8.23;6.93;;;26.10;99.90;;;;;;4970048;28;20395;-60
2023/05/07 12:19:14;;;;;;;8.20;6.57;;;26.10;99.90;;;;;;4971105;28;20408;-59
2023/05/07 12:21:40;;;;;;;8.00;6.50;;;26.20;99.90;;;;;;4970358;28;20384;-59
2023/05/07 12:24:07;;;;;;;10.30;7.07;;;25.90;99.90;;;;;;4953714;28;20444;-57
2023/05/07 12:26:38;;;;;;;8.60;6.55;;;25.70;99.90;;;;;;4967801;28;20906;-58
2023/05/07 12:29:03;;;;;;;8.30;6.20;;;25.50;99.90;;;;;;4968016;28;20408;-57
2023/05/07 12:31:29;;;;;;;7.90;6.10;;;25.50;99.90;;;;;;4970822;28;20396;-57
2023/05/07 12:33:55;;;;;;;7.90;6.57;;;25.70;99.90;;;;;;4968027;28;20415;-57
2023/05/07 12:36:21;;;;;;;8.33;5.93;;;25.60;99.90;;;;;;4970753;28;20388;-58
2023/05/07 12:38:49;;;;;;;8.20;6.80;;;25.70;99.90;;;;;;4970001;28;20423;-58
2023/05/07 12:41:16;;;;;;;7.10;6.10;;;25.70;99.90;;;;;;4970819;28;20457;-58
2023/05/07 12:43:45;;;;;;;8.10;6.18;;;25.60;99.90;;;;;;4968132;28;20507;-58
2023/05/07 12:46:13;;;;;;;7.60;6.20;;;25.40;99.90;;;;;;4970185;28;20431;-58